Time;durP1;ratioP1;P1;durP2;ratioP2;P2;SDS_P1;SDS_P2;PMS_P1;PMS_P2;Temp;Humidity;BMP_temperature;BMP_pressure;BME280_temperature;BME280_humidity;BME280_pressure;Samples;Min_cycle;Max_cycle;Signal;HPM_P1;HPM_P2
2023/11/04 00:00:30;;;;;;;9.52;8.02;;;;;;;;;;10291994;28;20075;-65
2023/11/04 00:05:36;;;;;;;11.50;7.93;;;;;;;;;;10292435;28;20084;-65
2023/11/04 00:10:35;;;;;;;9.43;8.10;;;;;;;;;;10287173;28;20072;-65
2023/11/04 00:15:34;;;;;;;12.60;8.75;;;;;;;;;;10289226;28;20065;-66
2023/11/04 00:20:33;;;;;;;9.40;6.45;;;;;;;;;;10291939;28;20087;-65
2023/11/04 00:25:46;;;;;;;8.68;7.50;;;;;;;;;;10291518;28;20076;-66
2023/11/04 00:30:45;;;;;;;12.38;7.72;;;;;;;;;;10290032;28;20061;-63
2023/11/04 00:35:44;;;;;;;8.80;7.55;;;;;;;;;;10288790;28;20064;-65
2023/11/04 00:40:42;;;;;;;8.95;8.05;;;;;;;;;;10295682;28;20413;-64
2023/11/04 00:45:40;;;;;;;7.78;6.97;;;;;;;;;;10290277;28;20068;-65
2023/11/04 00:50:41;;;;;;;7.32;6.40;;;;;;;;;;10294563;28;20087;-63
2023/11/04 00:55:39;;;;;;;8.60;6.78;;;;;;;;;;10287100;28;20820;-65
2023/11/04 01:00:39;;;;;;;8.18;6.72;;;;;;;;;;10285028;28;20072;-65
2023/11/04 01:05:37;;;;;;;7.43;6.72;;;;;;;;;;10296474;28;20514;-65
2023/11/04 01:10:38;;;;;;;7.80;6.70;;;;;;;;;;10288758;28;20509;-64
2023/11/04 01:15:36;;;;;;;8.70;6.55;;;;;;;;;;10284826;28;20075;-64
2023/11/04 01:20:35;;;;;;;6.60;5.88;;;;;;;;;;10288432;28;20087;-65
2023/11/04 01:25:33;;;;;;;7.43;5.72;;;;;;;;;;10290665;28;20494;-65
2023/11/04 01:30:33;;;;;;;8.48;7.03;;;;;;;;;;10296114;28;20076;-64
2023/11/04 01:35:32;;;;;;;11.40;7.35;;;;;;;;;;10288145;28;20063;-66
2023/11/04 01:40:30;;;;;;;6.78;5.80;;;;;;;;;;10288670;28;20076;-66
2023/11/04 01:45:28;;;;;;;8.23;5.47;;;;;;;;;;10289109;28;20048;-65
2023/11/04 01:50:28;;;;;;;7.30;4.88;;;;;;;;;;10287318;28;20083;-65
2023/11/04 01:55:27;;;;;;;7.30;4.90;;;;;;;;;;10289766;28;20501;-64
2023/11/04 02:00:25;;;;;;;6.22;4.70;;;;;;;;;;10293168;28;20056;-65
2023/11/04 02:05:23;;;;;;;7.60;4.63;;;;;;;;;;10294003;28;20111;-64
2023/11/04 02:10:24;;;;;;;5.03;3.85;;;;;;;;;;10289986;28;20059;-65
2023/11/04 02:15:23;;;;;;;4.55;3.78;;;;;;;;;;10295772;28;20069;-65
2023/11/04 02:20:21;;;;;;;6.07;4.40;;;;;;;;;;10289073;28;20497;-65
2023/11/04 02:25:21;;;;;;;6.90;4.22;;;;;;;;;;10293275;28;20077;-65
2023/11/04 02:30:19;;;;;;;5.03;3.67;;;;;;;;;;10295253;28;20510;-66
2023/11/04 02:35:19;;;;;;;4.18;3.47;;;;;;;;;;10295815;28;20505;-65
2023/11/04 02:40:17;;;;;;;6.97;3.15;;;;;;;;;;10294950;28;20072;-65
2023/11/04 02:45:17;;;;;;;7.03;3.10;;;;;;;;;;10294652;28;20072;-64
2023/11/04 02:50:15;;;;;;;5.75;3.40;;;;;;;;;;10301069;28;20080;-64
2023/11/04 02:55:14;;;;;;;4.93;3.40;;;;;;;;;;10294300;28;20061;-64
2023/11/04 03:00:14;;;;;;;3.75;3.20;;;;;;;;;;10294419;28;20064;-65
2023/11/04 03:05:15;;;;;;;3.75;3.45;;;;;;;;;;10293078;28;20068;-65
2023/11/04 03:10:30;;;;;;;3.38;2.95;;;;;;;;;;10294178;28;21305;-64
2023/11/04 03:15:28;;;;;;;4.10;3.15;;;;;;;;;;10291824;28;20060;-64
2023/11/04 03:20:28;;;;;;;5.03;3.40;;;;;;;;;;10290689;28;20045;-64
2023/11/04 03:25:26;;;;;;;10.43;3.50;;;;;;;;;;10292297;28;20065;-67
2023/11/04 03:30:25;;;;;;;4.80;3.50;;;;;;;;;;10293804;28;20081;-65
2023/11/04 03:35:23;;;;;;;7.43;4.30;;;;;;;;;;10304548;28;20076;-65
2023/11/04 03:40:23;;;;;;;5.60;3.85;;;;;;;;;;10289795;28;20087;-64
2023/11/04 03:45:21;;;;;;;7.65;4.10;;;;;;;;;;10293270;28;20072;-65
2023/11/04 03:50:19;;;;;;;5.80;4.13;;;;;;;;;;10297776;28;20545;-65
2023/11/04 03:55:18;;;;;;;7.40;3.70;;;;;;;;;;10291640;28;20079;-65
2023/11/04 04:00:19;;;;;;;7.55;3.80;;;;;;;;;;10291670;28;20055;-65
2023/11/04 04:05:17;;;;;;;6.97;4.07;;;;;;;;;;10291410;28;20077;-65
2023/11/04 04:10:16;;;;;;;7.30;4.43;;;;;;;;;;10291320;28;20349;-65
2023/11/04 04:15:14;;;;;;;4.68;4.10;;;;;;;;;;10291796;28;20079;-65
2023/11/04 04:20:16;;;;;;;5.75;5.22;;;;;;;;;;10291040;28;20534;-65
2023/11/04 04:25:14;;;;;;;6.60;5.00;;;;;;;;;;10290867;28;20060;-64
2023/11/04 04:30:13;;;;;;;5.07;4.55;;;;;;;;;;10291775;28;20072;-65
2023/11/04 04:35:11;;;;;;;4.68;4.18;;;;;;;;;;10289866;28;20073;-65
2023/11/04 04:40:12;;;;;;;5.50;4.50;;;;;;;;;;10289707;28;20076;-64
2023/11/04 04:45:10;;;;;;;10.02;7.40;;;;;;;;;;10287886;28;20079;-65
2023/11/04 04:50:09;;;;;;;11.23;9.13;;;;;;;;;;10288774;28;20090;-64
2023/11/04 04:55:07;;;;;;;8.82;7.63;;;;;;;;;;10289588;28;20521;-65
2023/11/04 05:00:09;;;;;;;8.25;7.30;;;;;;;;;;10290703;28;20068;-65
2023/11/04 05:05:09;;;;;;;8.63;7.82;;;;;;;;;;10288677;28;20487;-65
2023/11/04 05:10:09;;;;;;;11.98;8.57;;;;;;;;;;10288980;28;20084;-65
2023/11/04 05:15:10;;;;;;;9.93;8.63;;;;;;;;;;10288644;28;20083;-65
2023/11/04 05:20:08;;;;;;;11.38;9.95;;;;;;;;;;10290544;28;20091;-65
2023/11/04 05:25:07;;;;;;;11.80;9.10;;;;;;;;;;10285607;28;20083;-65
2023/11/04 05:30:06;;;;;;;12.70;8.45;;;;;;;;;;10288683;28;20533;-65
2023/11/04 05:35:08;;;;;;;10.82;8.52;;;;;;;;;;10287848;28;20072;-65
2023/11/04 05:40:07;;;;;;;12.27;10.20;;;;;;;;;;10293998;28;20076;-64
2023/11/04 05:45:06;;;;;;;11.10;9.07;;;;;;;;;;10297987;28;20076;-64
2023/11/04 05:50:04;;;;;;;13.45;10.38;;;;;;;;;;10295767;28;20531;-64
2023/11/04 05:55:04;;;;;;;9.85;8.45;;;;;;;;;;10296907;28;20084;-65
2023/11/04 06:00:07;;;;;;;10.48;8.88;;;;;;;;;;10296532;28;20076;-64
2023/11/04 06:05:06;;;;;;;11.20;9.90;;;;;;;;;;10296258;28;20521;-65
2023/11/04 06:10:08;;;;;;;11.75;10.48;;;;;;;;;;10295552;28;20084;-64
2023/11/04 06:15:07;;;;;;;12.20;9.40;;;;;;;;;;10296288;28;20049;-63
2023/11/04 06:20:06;;;;;;;16.10;8.95;;;;;;;;;;10293655;28;20080;-65
2023/11/04 06:25:06;;;;;;;13.40;7.70;;;;;;;;;;10296290;28;20505;-64
2023/11/04 06:30:07;;;;;;;12.32;7.40;;;;;;;;;;10294228;28;20479;-65
2023/11/04 06:35:06;;;;;;;10.27;6.63;;;;;;;;;;10295292;28;20134;-65
2023/11/04 06:40:09;;;;;;;11.52;6.07;;;;;;;;;;10291590;28;20069;-64
2023/11/04 06:45:08;;;;;;;9.65;7.28;;;;;;;;;;10292512;28;20080;-64
2023/11/04 06:50:09;;;;;;;12.85;7.60;;;;;;;;;;10292467;28;20076;-65
2023/11/04 06:55:09;;;;;;;10.75;8.57;;;;;;;;;;10291323;28;20072;-64
2023/11/04 07:00:11;;;;;;;13.05;8.90;;;;;;;;;;10293652;28;20045;-64
2023/11/04 07:05:10;;;;;;;16.30;8.95;;;;;;;;;;10294800;28;20080;-64
2023/11/04 07:10:10;;;;;;;12.55;7.60;;;;;;;;;;10293208;28;20076;-65
2023/11/04 07:15:09;;;;;;;19.08;6.65;;;;;;;;;;10295910;28;20438;-64
2023/11/04 07:20:09;;;;;;;13.57;7.15;;;;;;;;;;10296343;28;20089;-65
2023/11/04 07:25:10;;;;;;;16.60;7.45;;;;;;;;;;10288085;28;20092;-64
2023/11/04 07:30:09;;;;;;;14.18;6.95;;;;;;;;;;10293461;28;20067;-64
2023/11/04 07:35:10;;;;;;;16.20;5.43;;;;;;;;;;10288626;28;20041;-65
2023/11/04 07:40:10;;;;;;;11.90;4.55;;;;;;;;;;10288896;28;20680;-64
2023/11/04 07:45:10;;;;;;;8.60;4.47;;;;;;;;;;10288094;28;20538;-64
2023/11/04 07:50:09;;;;;;;9.02;4.32;;;;;;;;;;10290755;28;20094;-65
2023/11/04 07:55:08;;;;;;;5.97;3.60;;;;;;;;;;10287917;28;20509;-64
2023/11/04 08:00:08;;;;;;;7.28;4.13;;;;;;;;;;10290377;28;20076;-65
2023/11/04 08:05:07;;;;;;;7.10;3.70;;;;;;;;;;10288499;28;20064;-64
2023/11/04 08:10:06;;;;;;;8.98;4.47;;;;;;;;;;10291666;28;20068;-64
2023/11/04 08:15:05;;;;;;;5.75;3.50;;;;;;;;;;10291898;28;20069;-64
2023/11/04 08:20:08;;;;;;;9.55;4.00;;;;;;;;;;10288316;28;20107;-64
2023/11/04 08:25:07;;;;;;;16.25;9.23;;;;;;;;;;10287891;28;20076;-65
2023/11/04 08:30:07;;;;;;;12.77;7.47;;;;;;;;;;10284328;28;20072;-66
2023/11/04 08:35:07;;;;;;;15.35;9.27;;;;;;;;;;10285914;28;20540;-66
2023/11/04 08:40:06;;;;;;;13.50;11.35;;;;;;;;;;10284976;28;20510;-64
2023/11/04 08:45:10;;;;;;;15.15;10.35;;;;;;;;;;10287864;28;20088;-65
2023/11/04 08:50:10;;;;;;;17.35;10.60;;;;;;;;;;10287149;28;20064;-65
2023/11/04 08:55:10;;;;;;;14.73;11.10;;;;;;;;;;10290986;28;20102;-66
2023/11/04 09:00:11;;;;;;;13.15;9.60;;;;;;;;;;10288789;28;20075;-65
2023/11/04 09:05:11;;;;;;;15.00;9.70;;;;;;;;;;10286539;28;20102;-66
2023/11/04 09:10:18;;;;;;;13.15;9.02;;;;;;;;;;10287136;28;20079;-65
2023/11/04 09:15:17;;;;;;;12.90;9.13;;;;;;;;;;10288508;28;20591;-66
2023/11/04 09:20:16;;;;;;;14.48;11.63;;;;;;;;;;10294291;28;20084;-65
2023/11/04 09:25:15;;;;;;;14.95;12.38;;;;;;;;;;10294612;28;20099;-65
2023/11/04 09:30:14;;;;;;;13.65;11.15;;;;;;;;;;10295721;28;20071;-66
2023/11/04 09:35:13;;;;;;;14.77;11.13;;;;;;;;;;10298135;28;20072;-65
2023/11/04 09:40:13;;;;;;;10.73;9.40;;;;;;;;;;10296426;28;20060;-65
2023/11/04 09:45:12;;;;;;;9.68;8.68;;;;;;;;;;10300121;28;20072;-65
2023/11/04 09:50:10;;;;;;;10.63;9.40;;;;;;;;;;10295021;28;20064;-66
2023/11/04 09:55:14;;;;;;;14.50;8.38;;;;;;;;;;10295436;28;20353;-66
2023/11/04 10:00:14;;;;;;;9.52;8.40;;;;;;;;;;10295348;28;20068;-67
2023/11/04 10:05:13;;;;;;;13.82;8.75;;;;;;;;;;10296069;28;20099;-66
2023/11/04 10:10:13;;;;;;;10.63;9.45;;;;;;;;;;10293608;28;20060;-65
2023/11/04 10:15:25;;;;;;;19.85;15.82;;;;;;;;;;10297328;28;20076;-65
2023/11/04 10:20:24;;;;;;;15.13;12.85;;;;;;;;;;10294527;28;20088;-65
2023/11/04 10:25:23;;;;;;;13.98;11.20;;;;;;;;;;10290287;28;20073;-66
2023/11/04 10:30:22;;;;;;;13.15;11.85;;;;;;;;;;10286404;28;20072;-65
2023/11/04 10:35:22;;;;;;;16.20;10.98;;;;;;;;;;10290604;28;20072;-66
2023/11/04 10:40:21;;;;;;;18.83;12.63;;;;;;;;;;10293663;28;20067;-67
2023/11/04 10:45:24;;;;;;;14.35;11.65;;;;;;;;;;10291972;28;20068;-65
2023/11/04 10:50:26;;;;;;;13.80;10.20;;;;;;;;;;10289167;28;20072;-66
2023/11/04 10:55:28;;;;;;;10.00;9.00;;;;;;;;;;10292051;28;20068;-65
2023/11/04 11:00:28;;;;;;;10.32;9.30;;;;;;;;;;10293570;28;20077;-66
2023/11/04 11:05:29;;;;;;;12.00;8.93;;;;;;;;;;10294038;28;20065;-67
2023/11/04 11:10:31;;;;;;;14.80;9.52;;;;;;;;;;10292481;28;20075;-66
2023/11/04 11:15:31;;;;;;;10.85;8.25;;;;;;;;;;10292039;28;20885;-65
2023/11/04 11:20:30;;;;;;;9.23;6.55;;;;;;;;;;10293678;28;20099;-67
2023/11/04 11:25:30;;;;;;;11.20;7.15;;;;;;;;;;10289105;28;20076;-65
2023/11/04 11:30:37;;;;;;;10.50;7.88;;;;;;;;;;10293825;28;20482;-64
2023/11/04 11:35:57;;;;;;;12.27;7.97;;;;;;;;;;10279617;28;20065;-66
2023/11/04 11:40:55;;;;;;;10.95;6.13;;;;;;;;;;10293168;28;20071;-66
2023/11/04 11:45:55;;;;;;;15.65;10.27;;;;;;;;;;10290040;28;20165;-66
2023/11/04 11:50:54;;;;;;;7.45;6.60;;;;;;;;;;10283504;28;20487;-66
2023/11/04 11:55:56;;;;;;;9.25;6.70;;;;;;;;;;10284488;28;20091;-65
2023/11/04 12:00:57;;;;;;;9.52;7.68;;;;;;;;;;10290258;28;20087;-65
2023/11/04 12:05:55;;;;;;;9.57;7.30;;;;;;;;;;10288541;28;20067;-66
2023/11/04 12:10:54;;;;;;;8.43;7.07;;;;;;;;;;10293496;28;20076;-65
2023/11/04 12:15:52;;;;;;;7.55;6.80;;;;;;;;;;10294868;28;20129;-66
2023/11/04 12:20:52;;;;;;;10.30;9.20;;;;;;;;;;10291181;28;20099;-65
2023/11/04 12:25:50;;;;;;;9.95;7.57;;;;;;;;;;10285621;28;20080;-65
2023/11/04 12:30:58;;;;;;;9.50;8.57;;;;;;;;;;10285885;28;20049;-66
2023/11/04 12:35:59;;;;;;;10.80;8.45;;;;;;;;;;10286733;28;20090;-65
2023/11/04 12:41:05;;;;;;;11.27;7.55;;;;;;;;;;10287614;28;20065;-65
2023/11/04 12:46:04;;;;;;;9.43;6.93;;;;;;;;;;10288846;28;20073;-65
2023/11/04 12:51:04;;;;;;;13.50;6.63;;;;;;;;;;10289389;28;20075;-64
2023/11/04 12:56:03;;;;;;;8.43;6.60;;;;;;;;;;10286029;28;20073;-64
2023/11/04 13:01:01;;;;;;;6.65;6.00;;;;;;;;;;10289891;28;20087;-64
2023/11/04 13:05:59;;;;;;;7.25;5.70;;;;;;;;;;10290500;28;20083;-64
2023/11/04 13:10:59;;;;;;;10.00;7.10;;;;;;;;;;10286061;28;20080;-64
2023/11/04 13:15:57;;;;;;;11.45;7.47;;;;;;;;;;10288411;28;20490;-65
2023/11/04 13:20:56;;;;;;;8.82;6.47;;;;;;;;;;10287737;28;20091;-64
2023/11/04 13:25:54;;;;;;;4.88;4.38;;;;;;;;;;10285737;28;20068;-64
2023/11/04 13:30:54;;;;;;;6.95;5.28;;;;;;;;;;10273737;28;20084;-64
2023/11/04 13:35:52;;;;;;;6.90;5.90;;;;;;;;;;10277709;28;20083;-65
2023/11/04 13:40:51;;;;;;;8.85;6.10;;;;;;;;;;10289224;28;20083;-64
2023/11/04 13:45:49;;;;;;;7.93;6.50;;;;;;;;;;10287502;28;20174;-64
2023/11/04 13:50:50;;;;;;;8.43;6.13;;;;;;;;;;10285633;28;20077;-65
2023/11/04 13:55:48;;;;;;;9.48;6.13;;;;;;;;;;10286453;28;20080;-63
2023/11/04 14:00:48;;;;;;;6.00;5.38;;;;;;;;;;10289229;28;20506;-64
2023/11/04 14:05:46;;;;;;;6.18;5.57;;;;;;;;;;10294044;28;20090;-65
2023/11/04 14:10:46;;;;;;;6.50;4.93;;;;;;;;;;10296588;28;20084;-64
2023/11/04 14:15:44;;;;;;;5.97;4.95;;;;;;;;;;10300806;28;20076;-64
2023/11/04 14:20:43;;;;;;;5.85;4.78;;;;;;;;;;10294414;28;20080;-64
2023/11/04 14:25:41;;;;;;;8.18;5.20;;;;;;;;;;10293297;28;20072;-64
2023/11/04 14:30:41;;;;;;;9.27;8.38;;;;;;;;;;10296737;28;20072;-63
2023/11/04 14:35:39;;;;;;;19.02;8.45;;;;;;;;;;10286195;28;20446;-63
2023/11/04 14:40:39;;;;;;;9.52;8.52;;;;;;;;;;10294334;28;20072;-64
2023/11/04 14:45:37;;;;;;;9.35;7.00;;;;;;;;;;10297476;28;20122;-65
2023/11/04 14:50:38;;;;;;;8.63;6.78;;;;;;;;;;10296213;28;20068;-63
2023/11/04 14:55:36;;;;;;;11.85;8.35;;;;;;;;;;10289445;28;20072;-64
2023/11/04 15:00:34;;;;;;;6.60;4.80;;;;;;;;;;10290357;28;20532;-64
2023/11/04 15:05:33;;;;;;;7.03;5.00;;;;;;;;;;10288357;28;20068;-64
2023/11/04 15:10:32;;;;;;;5.35;4.00;;;;;;;;;;10290223;28;20076;-64
2023/11/04 15:15:31;;;;;;;3.80;3.50;;;;;;;;;;10288561;28;20539;-64
2023/11/04 15:20:29;;;;;;;5.25;3.88;;;;;;;;;;10287652;28;20176;-65
2023/11/04 15:25:27;;;;;;;5.15;4.45;;;;;;;;;;10287294;28;20075;-64
2023/11/04 15:30:27;;;;;;;10.05;5.57;;;;;;;;;;10290312;28;20068;-64
2023/11/04 15:35:25;;;;;;;46.00;35.80;;;;;;;;;;10282280;28;20120;-64
2023/11/04 15:40:23;;;;;;;28.98;23.38;;;;;;;;;;10288543;28;20069;-63
2023/11/04 15:45:22;;;;;;;20.05;17.92;;;;;;;;;;10292293;28;20453;-63
2023/11/04 15:50:21;;;;;;;16.35;14.75;;;;;;;;;;10292184;28;20073;-63
2023/11/04 15:55:19;;;;;;;6.50;5.55;;;;;;;;;;10291709;28;20084;-63
2023/11/04 16:00:18;;;;;;;10.35;6.47;;;;;;;;;;10292477;28;20087;-63
2023/11/04 16:05:16;;;;;;;9.15;7.07;;;;;;;;;;10291083;28;20045;-64
2023/11/04 16:10:16;;;;;;;13.98;9.95;;;;;;;;;;10291689;28;20076;-64
2023/11/04 16:15:15;;;;;;;6.80;5.88;;;;;;;;;;10291512;28;20075;-64
2023/11/04 16:20:13;;;;;;;7.32;5.45;;;;;;;;;;10290441;28;20088;-64
2023/11/04 16:25:11;;;;;;;14.27;10.32;;;;;;;;;;10291128;28;20095;-64
2023/11/04 16:30:12;;;;;;;9.38;6.18;;;;;;;;;;10285220;28;20079;-63
2023/11/04 16:35:10;;;;;;;9.75;7.43;;;;;;;;;;10287281;28;20075;-64
2023/11/04 16:40:09;;;;;;;9.32;8.25;;;;;;;;;;10287480;28;20072;-65
2023/11/04 16:45:09;;;;;;;7.38;4.43;;;;;;;;;;10288675;28;20820;-64
2023/11/04 16:50:14;;;;;;;6.88;5.82;;;;;;;;;;10286166;28;20083;-64
2023/11/04 16:55:14;;;;;;;9.88;7.78;;;;;;;;;;10287451;28;20083;-64
2023/11/04 17:00:13;;;;;;;29.02;17.88;;;;;;;;;;10290034;28;20091;-64
2023/11/04 17:05:13;;;;;;;5.45;4.93;;;;;;;;;;10289540;28;20065;-64
2023/11/04 17:10:11;;;;;;;10.30;9.30;;;;;;;;;;10289841;28;20068;-64
2023/11/04 17:15:10;;;;;;;7.15;4.75;;;;;;;;;;10284543;28;20076;-64
2023/11/04 17:20:09;;;;;;;9.90;6.82;;;;;;;;;;10289818;28;20103;-64
2023/11/04 17:25:08;;;;;;;6.88;6.28;;;;;;;;;;10289873;28;20068;-64
2023/11/04 17:30:07;;;;;;;4.00;3.40;;;;;;;;;;10288660;28;20052;-64
2023/11/04 17:35:08;;;;;;;6.22;3.88;;;;;;;;;;10292691;28;20072;-65
2023/11/04 17:40:10;;;;;;;17.20;13.05;;;;;;;;;;10297272;28;20073;-65
2023/11/04 17:45:09;;;;;;;6.30;3.55;;;;;;;;;;10294980;28;20079;-64
2023/11/04 17:50:08;;;;;;;13.38;9.90;;;;;;;;;;10296159;28;20064;-65
2023/11/04 17:55:08;;;;;;;3.60;2.67;;;;;;;;;;10297245;28;20083;-65
2023/11/04 18:00:09;;;;;;;3.28;2.70;;;;;;;;;;10296468;28;20080;-65
2023/11/04 18:05:10;;;;;;;6.57;4.43;;;;;;;;;;10296696;28;20077;-64
2023/11/04 18:10:10;;;;;;;5.85;4.50;;;;;;;;;;10295299;28;20073;-64
2023/11/04 18:15:08;;;;;;;4.88;3.17;;;;;;;;;;10295615;28;20079;-65
2023/11/04 18:20:07;;;;;;;6.53;2.70;;;;;;;;;;10298285;28;20091;-65
2023/11/04 18:25:06;;;;;;;3.45;2.40;;;;;;;;;;10294616;28;20117;-64
2023/11/04 18:30:06;;;;;;;5.28;3.22;;;;;;;;;;10295625;28;20080;-64
2023/11/04 18:35:05;;;;;;;4.22;2.85;;;;;;;;;;10294749;28;20083;-64
2023/11/04 18:40:04;;;;;;;4.13;2.30;;;;;;;;;;10293728;28;20076;-64
2023/11/04 18:45:05;;;;;;;4.53;2.75;;;;;;;;;;10293255;28;20072;-63
2023/11/04 18:50:05;;;;;;;4.03;3.45;;;;;;;;;;10294849;28;20072;-65
2023/11/04 18:55:05;;;;;;;3.65;2.35;;;;;;;;;;10294134;28;20088;-64
2023/11/04 19:00:04;;;;;;;2.67;2.17;;;;;;;;;;10295509;28;20072;-64
2023/11/04 19:05:04;;;;;;;2.95;2.35;;;;;;;;;;10293604;28;20076;-64
2023/11/04 19:10:05;;;;;;;4.53;3.70;;;;;;;;;;10296382;28;20072;-65
2023/11/04 19:15:04;;;;;;;7.07;2.67;;;;;;;;;;10293675;28;20088;-65
2023/11/04 19:20:02;;;;;;;4.05;3.30;;;;;;;;;;10294243;28;20480;-64
2023/11/04 19:25:00;;;;;;;7.20;5.40;;;;;;;;;;10291412;28;20068;-65
2023/11/04 19:30:00;;;;;;;5.32;3.50;;;;;;;;;;10293587;28;20067;-65
2023/11/04 19:34:58;;;;;;;4.90;2.58;;;;;;;;;;10292444;28;20081;-64
2023/11/04 19:39:57;;;;;;;5.85;4.20;;;;;;;;;;10291891;28;20068;-64
2023/11/04 19:44:55;;;;;;;6.50;5.90;;;;;;;;;;10289683;28;20065;-63
2023/11/04 19:49:55;;;;;;;9.02;3.40;;;;;;;;;;10283730;28;20069;-64
2023/11/04 19:54:54;;;;;;;5.60;3.90;;;;;;;;;;10294559;28;20411;-64
2023/11/04 19:59:52;;;;;;;3.17;2.88;;;;;;;;;;10287988;28;20072;-63
2023/11/04 20:04:51;;;;;;;2.28;2.08;;;;;;;;;;10292017;28;20068;-64
2023/11/04 20:09:51;;;;;;;5.35;2.83;;;;;;;;;;10291115;28;20099;-63
2023/11/04 20:14:50;;;;;;;4.78;3.22;;;;;;;;;;10289525;28;20088;-63
2023/11/04 20:19:48;;;;;;;5.25;2.63;;;;;;;;;;10287599;28;20073;-64
2023/11/04 20:24:47;;;;;;;3.13;2.63;;;;;;;;;;10289802;28;20705;-62
2023/11/04 20:29:48;;;;;;;3.22;2.22;;;;;;;;;;10287711;28;20061;-63
2023/11/04 20:34:46;;;;;;;6.75;2.50;;;;;;;;;;10289140;28;20064;-64
2023/11/04 20:39:44;;;;;;;3.22;2.70;;;;;;;;;;10290160;28;20076;-64
2023/11/04 20:44:42;;;;;;;3.03;2.63;;;;;;;;;;10288518;28;20470;-64
2023/11/04 20:49:43;;;;;;;4.95;2.50;;;;;;;;;;10283999;28;20081;-62
2023/11/04 20:54:41;;;;;;;3.65;3.22;;;;;;;;;;10285190;28;20060;-63
2023/11/04 20:59:41;;;;;;;4.25;3.05;;;;;;;;;;10280297;28;20067;-63
2023/11/04 21:04:39;;;;;;;4.85;2.83;;;;;;;;;;10286011;28;20057;-63
2023/11/04 21:09:40;;;;;;;3.65;2.70;;;;;;;;;;10285770;28;20061;-62
2023/11/04 21:14:38;;;;;;;3.17;2.88;;;;;;;;;;10286800;28;20075;-65
2023/11/04 21:19:37;;;;;;;3.97;2.60;;;;;;;;;;10287888;28;20076;-64
2023/11/04 21:24:35;;;;;;;3.92;2.30;;;;;;;;;;10286279;28;20060;-63
2023/11/04 21:29:35;;;;;;;2.60;2.35;;;;;;;;;;10287853;28;20496;-64
2023/11/04 21:34:33;;;;;;;2.90;2.17;;;;;;;;;;10288269;28;20568;-64
2023/11/04 21:39:31;;;;;;;2.42;2.22;;;;;;;;;;10290082;28;20076;-64
2023/11/04 21:44:30;;;;;;;6.35;2.83;;;;;;;;;;10289337;28;20591;-64
2023/11/04 21:49:30;;;;;;;2.97;2.70;;;;;;;;;;10288683;28;20540;-64
2023/11/04 21:54:28;;;;;;;5.60;3.08;;;;;;;;;;10290159;28;20060;-64
2023/11/04 21:59:27;;;;;;;5.03;2.72;;;;;;;;;;10284153;28;20072;-63
2023/11/04 22:04:25;;;;;;;3.20;2.25;;;;;;;;;;10284783;28;20075;-64
2023/11/04 22:09:25;;;;;;;5.93;2.50;;;;;;;;;;10288864;28;20065;-63
2023/11/04 22:14:24;;;;;;;3.20;2.40;;;;;;;;;;10288081;28;20072;-64
2023/11/04 22:19:22;;;;;;;3.15;2.20;;;;;;;;;;10288607;28;20083;-62
2023/11/04 22:24:20;;;;;;;3.50;2.42;;;;;;;;;;10295517;28;20060;-63
2023/11/04 22:29:20;;;;;;;2.50;2.13;;;;;;;;;;10295380;28;20091;-63
2023/11/04 22:34:18;;;;;;;5.00;2.92;;;;;;;;;;10295578;28;20507;-64
2023/11/04 22:39:16;;;;;;;3.08;2.60;;;;;;;;;;10296297;28;20083;-63
2023/11/04 22:44:15;;;;;;;3.75;2.38;;;;;;;;;;10294412;28;20083;-63
2023/11/04 22:49:14;;;;;;;6.47;3.15;;;;;;;;;;10293879;28;20076;-63
2023/11/04 22:54:13;;;;;;;4.53;2.60;;;;;;;;;;10291285;28;20072;-63
2023/11/04 22:59:11;;;;;;;3.55;2.20;;;;;;;;;;10294907;28;20174;-64
2023/11/04 23:04:09;;;;;;;6.63;2.90;;;;;;;;;;10293128;28;20056;-63
2023/11/04 23:09:09;;;;;;;2.85;2.53;;;;;;;;;;10294101;28;20110;-64
2023/11/04 23:14:09;;;;;;;4.68;2.13;;;;;;;;;;10292855;28;20066;-63
2023/11/04 23:19:07;;;;;;;6.63;2.72;;;;;;;;;;10293531;28;20083;-63
2023/11/04 23:24:06;;;;;;;6.95;2.75;;;;;;;;;;10294756;28;20075;-63
2023/11/04 23:29:08;;;;;;;2.45;2.15;;;;;;;;;;10292503;28;20076;-64
2023/11/04 23:34:06;;;;;;;1.70;1.60;;;;;;;;;;10290991;28;20110;-64
2023/11/04 23:39:04;;;;;;;2.47;1.92;;;;;;;;;;10292360;28;20080;-64
2023/11/04 23:44:03;;;;;;;1.98;1.70;;;;;;;;;;10291431;28;20080;-63
2023/11/04 23:49:02;;;;;;;2.45;1.95;;;;;;;;;;10293990;28;20069;-64
2023/11/04 23:54:00;;;;;;;2.72;2.20;;;;;;;;;;10291404;28;20536;-64
2023/11/04 23:58:59;;;;;;;1.80;1.70;;;;;;;;;;10293800;28;20072;-64
